sensor_id;sensor_type;location;lat;lon;timestamp;P1;durP1;ratioP1;P2;durP2;ratioP2
353;SDS011;165;53.592;10.044;2022-09-09T00:06:53;66.23;;;40.37;;
353;SDS011;165;53.592;10.044;2022-09-09T00:15:13;71.77;;;44.00;;
353;SDS011;165;53.592;10.044;2022-09-09T00:20:36;76.00;;;45.87;;
353;SDS011;165;53.592;10.044;2022-09-09T00:23:12;80.47;;;47.40;;
353;SDS011;165;53.592;10.044;2022-09-09T00:25:47;82.50;;;47.90;;
353;SDS011;165;53.592;10.044;2022-09-09T00:28:23;83.50;;;45.73;;
353;SDS011;165;53.592;10.044;2022-09-09T00:30:51;86.33;;;44.33;;
353;SDS011;165;53.592;10.044;2022-09-09T00:33:19;77.07;;;43.77;;
353;SDS011;165;53.592;10.044;2022-09-09T00:35:48;78.27;;;41.70;;
353;SDS011;165;53.592;10.044;2022-09-09T00:38:22;75.57;;;43.30;;
353;SDS011;165;53.592;10.044;2022-09-09T00:43:37;87.43;;;44.13;;
353;SDS011;165;53.592;10.044;2022-09-09T00:49:00;75.13;;;42.87;;
353;SDS011;165;53.592;10.044;2022-09-09T00:59:44;74.30;;;42.20;;
353;SDS011;165;53.592;10.044;2022-09-09T01:02:23;78.90;;;39.77;;
353;SDS011;165;53.592;10.044;2022-09-09T01:04:57;75.70;;;38.40;;
353;SDS011;165;53.592;10.044;2022-09-09T01:07:32;63.43;;;37.57;;
353;SDS011;165;53.592;10.044;2022-09-09T01:09:58;65.57;;;36.60;;
353;SDS011;165;53.592;10.044;2022-09-09T01:15:10;61.80;;;35.60;;
353;SDS011;165;53.592;10.044;2022-09-09T01:17:46;61.03;;;35.13;;
353;SDS011;165;53.592;10.044;2022-09-09T01:28:27;51.83;;;32.30;;
353;SDS011;165;53.592;10.044;2022-09-09T01:30:54;51.70;;;30.77;;
353;SDS011;165;53.592;10.044;2022-09-09T01:33:21;48.97;;;30.07;;
353;SDS011;165;53.592;10.044;2022-09-09T01:38:21;50.73;;;31.50;;
353;SDS011;165;53.592;10.044;2022-09-09T01:40:48;53.53;;;32.70;;
353;SDS011;165;53.592;10.044;2022-09-09T01:43:17;53.47;;;32.10;;
353;SDS011;165;53.592;10.044;2022-09-09T01:45:44;48.70;;;30.07;;
353;SDS011;165;53.592;10.044;2022-09-09T01:48:11;50.57;;;31.20;;
353;SDS011;165;53.592;10.044;2022-09-09T01:50:37;55.67;;;30.57;;
353;SDS011;165;53.592;10.044;2022-09-09T01:53:02;52.57;;;32.57;;
353;SDS011;165;53.592;10.044;2022-09-09T01:55:32;52.20;;;30.30;;
353;SDS011;165;53.592;10.044;2022-09-09T01:58:26;49.07;;;30.33;;
353;SDS011;165;53.592;10.044;2022-09-09T02:03:32;46.60;;;31.10;;
353;SDS011;165;53.592;10.044;2022-09-09T02:11:17;49.47;;;30.30;;
353;SDS011;165;53.592;10.044;2022-09-09T02:13:45;51.20;;;31.67;;
353;SDS011;165;53.592;10.044;2022-09-09T02:16:15;49.27;;;31.03;;
353;SDS011;165;53.592;10.044;2022-09-09T02:18:57;46.60;;;30.90;;
353;SDS011;165;53.592;10.044;2022-09-09T02:21:33;54.40;;;32.77;;
353;SDS011;165;53.592;10.044;2022-09-09T02:24:00;48.77;;;31.40;;
353;SDS011;165;53.592;10.044;2022-09-09T02:26:29;57.47;;;33.10;;
353;SDS011;165;53.592;10.044;2022-09-09T02:28:59;47.60;;;33.03;;
353;SDS011;165;53.592;10.044;2022-09-09T02:31:27;49.43;;;32.63;;
353;SDS011;165;53.592;10.044;2022-09-09T02:33:57;51.90;;;32.67;;
353;SDS011;165;53.592;10.044;2022-09-09T02:36:28;53.67;;;31.27;;
353;SDS011;165;53.592;10.044;2022-09-09T02:38:58;50.73;;;32.37;;
353;SDS011;165;53.592;10.044;2022-09-09T02:41:26;54.60;;;32.87;;
353;SDS011;165;53.592;10.044;2022-09-09T02:44:01;50.67;;;31.93;;
353;SDS011;165;53.592;10.044;2022-09-09T02:46:36;44.37;;;28.07;;
353;SDS011;165;53.592;10.044;2022-09-09T02:49:10;53.20;;;30.60;;
353;SDS011;165;53.592;10.044;2022-09-09T02:51:53;41.47;;;29.20;;
353;SDS011;165;53.592;10.044;2022-09-09T02:54:32;45.10;;;30.00;;
353;SDS011;165;53.592;10.044;2022-09-09T02:57:06;47.07;;;32.60;;
353;SDS011;165;53.592;10.044;2022-09-09T02:59:36;43.87;;;29.60;;
353;SDS011;165;53.592;10.044;2022-09-09T03:02:02;43.60;;;30.50;;
353;SDS011;165;53.592;10.044;2022-09-09T03:04:28;41.00;;;29.87;;
353;SDS011;165;53.592;10.044;2022-09-09T03:06:56;41.37;;;29.60;;
353;SDS011;165;53.592;10.044;2022-09-09T03:09:22;42.17;;;29.40;;
353;SDS011;165;53.592;10.044;2022-09-09T03:11:48;39.50;;;27.40;;
353;SDS011;165;53.592;10.044;2022-09-09T03:14:14;37.73;;;26.77;;
353;SDS011;165;53.592;10.044;2022-09-09T03:16:40;38.67;;;28.50;;
353;SDS011;165;53.592;10.044;2022-09-09T03:19:07;37.97;;;27.33;;
353;SDS011;165;53.592;10.044;2022-09-09T03:21:33;40.13;;;28.03;;
353;SDS011;165;53.592;10.044;2022-09-09T03:23:59;42.13;;;27.73;;
353;SDS011;165;53.592;10.044;2022-09-09T03:26:25;42.03;;;27.60;;
353;SDS011;165;53.592;10.044;2022-09-09T03:28:50;39.53;;;26.23;;
353;SDS011;165;53.592;10.044;2022-09-09T03:31:16;38.83;;;26.27;;
353;SDS011;165;53.592;10.044;2022-09-09T03:33:44;34.77;;;26.60;;
353;SDS011;165;53.592;10.044;2022-09-09T03:36:10;32.20;;;24.10;;
353;SDS011;165;53.592;10.044;2022-09-09T03:38:35;32.20;;;24.03;;
353;SDS011;165;53.592;10.044;2022-09-09T03:41:01;30.93;;;23.87;;
353;SDS011;165;53.592;10.044;2022-09-09T03:43:27;32.30;;;23.13;;
353;SDS011;165;53.592;10.044;2022-09-09T03:45:54;30.67;;;23.17;;
353;SDS011;165;53.592;10.044;2022-09-09T03:48:23;30.73;;;23.47;;
353;SDS011;165;53.592;10.044;2022-09-09T03:50:50;31.90;;;23.57;;
353;SDS011;165;53.592;10.044;2022-09-09T03:53:18;33.27;;;23.50;;
353;SDS011;165;53.592;10.044;2022-09-09T03:55:48;33.43;;;24.97;;
353;SDS011;165;53.592;10.044;2022-09-09T03:58:17;29.83;;;22.93;;
353;SDS011;165;53.592;10.044;2022-09-09T04:01:08;29.13;;;22.00;;
353;SDS011;165;53.592;10.044;2022-09-09T04:03:39;31.10;;;22.53;;
353;SDS011;165;53.592;10.044;2022-09-09T04:06:06;27.63;;;21.43;;
353;SDS011;165;53.592;10.044;2022-09-09T04:08:34;29.70;;;21.60;;
353;SDS011;165;53.592;10.044;2022-09-09T04:11:01;32.87;;;23.80;;
353;SDS011;165;53.592;10.044;2022-09-09T04:13:31;30.53;;;22.80;;
353;SDS011;165;53.592;10.044;2022-09-09T04:15:58;31.30;;;24.10;;
353;SDS011;165;53.592;10.044;2022-09-09T04:18:24;27.23;;;21.40;;
353;SDS011;165;53.592;10.044;2022-09-09T04:20:51;30.97;;;23.93;;
353;SDS011;165;53.592;10.044;2022-09-09T04:23:17;26.60;;;22.10;;
353;SDS011;165;53.592;10.044;2022-09-09T04:25:49;27.23;;;23.30;;
353;SDS011;165;53.592;10.044;2022-09-09T04:28:16;29.67;;;22.83;;
353;SDS011;165;53.592;10.044;2022-09-09T04:30:43;27.30;;;22.17;;
353;SDS011;165;53.592;10.044;2022-09-09T04:33:10;28.10;;;23.53;;
353;SDS011;165;53.592;10.044;2022-09-09T04:35:36;29.60;;;21.50;;
353;SDS011;165;53.592;10.044;2022-09-09T04:38:02;27.47;;;22.20;;
353;SDS011;165;53.592;10.044;2022-09-09T04:40:29;28.43;;;21.50;;
353;SDS011;165;53.592;10.044;2022-09-09T04:42:59;25.50;;;20.83;;
353;SDS011;165;53.592;10.044;2022-09-09T04:45:25;25.60;;;21.30;;
353;SDS011;165;53.592;10.044;2022-09-09T04:47:51;23.87;;;20.03;;
353;SDS011;165;53.592;10.044;2022-09-09T04:50:17;27.17;;;21.33;;
353;SDS011;165;53.592;10.044;2022-09-09T04:52:43;23.03;;;19.97;;
353;SDS011;165;53.592;10.044;2022-09-09T04:55:09;26.03;;;20.77;;
353;SDS011;165;53.592;10.044;2022-09-09T04:57:34;27.60;;;21.93;;
353;SDS011;165;53.592;10.044;2022-09-09T05:00:00;24.20;;;20.40;;
353;SDS011;165;53.592;10.044;2022-09-09T05:02:27;26.83;;;21.57;;
353;SDS011;165;53.592;10.044;2022-09-09T05:04:52;23.73;;;20.13;;
353;SDS011;165;53.592;10.044;2022-09-09T05:07:18;23.40;;;19.50;;
353;SDS011;165;53.592;10.044;2022-09-09T05:09:44;22.00;;;18.30;;
353;SDS011;165;53.592;10.044;2022-09-09T05:12:10;24.17;;;19.60;;
353;SDS011;165;53.592;10.044;2022-09-09T05:14:36;21.00;;;18.53;;
353;SDS011;165;53.592;10.044;2022-09-09T05:17:02;20.73;;;18.60;;
353;SDS011;165;53.592;10.044;2022-09-09T05:19:28;21.27;;;19.17;;
353;SDS011;165;53.592;10.044;2022-09-09T05:21:53;22.97;;;19.27;;
353;SDS011;165;53.592;10.044;2022-09-09T05:24:19;22.13;;;18.17;;
353;SDS011;165;53.592;10.044;2022-09-09T05:26:44;19.97;;;17.50;;
353;SDS011;165;53.592;10.044;2022-09-09T05:29:10;23.03;;;18.23;;
353;SDS011;165;53.592;10.044;2022-09-09T05:31:35;25.00;;;18.57;;
353;SDS011;165;53.592;10.044;2022-09-09T05:34:03;19.60;;;17.10;;
353;SDS011;165;53.592;10.044;2022-09-09T05:36:29;19.40;;;17.27;;
353;SDS011;165;53.592;10.044;2022-09-09T05:38:55;18.87;;;16.90;;
353;SDS011;165;53.592;10.044;2022-09-09T05:41:20;17.73;;;16.17;;
353;SDS011;165;53.592;10.044;2022-09-09T05:43:47;17.93;;;17.10;;
353;SDS011;165;53.592;10.044;2022-09-09T05:46:16;19.00;;;17.90;;
353;SDS011;165;53.592;10.044;2022-09-09T05:48:45;19.03;;;16.60;;
353;SDS011;165;53.592;10.044;2022-09-09T05:51:12;18.57;;;17.07;;
353;SDS011;165;53.592;10.044;2022-09-09T05:53:47;17.67;;;15.57;;
353;SDS011;165;53.592;10.044;2022-09-09T05:56:20;19.47;;;16.63;;
353;SDS011;165;53.592;10.044;2022-09-09T05:58:47;18.33;;;15.83;;
353;SDS011;165;53.592;10.044;2022-09-09T06:01:15;16.30;;;14.00;;
353;SDS011;165;53.592;10.044;2022-09-09T06:03:43;15.43;;;14.63;;
353;SDS011;165;53.592;10.044;2022-09-09T06:06:10;14.90;;;13.27;;
353;SDS011;165;53.592;10.044;2022-09-09T06:08:39;14.17;;;12.37;;
353;SDS011;165;53.592;10.044;2022-09-09T06:14:01;12.43;;;11.77;;
353;SDS011;165;53.592;10.044;2022-09-09T06:16:27;16.00;;;15.20;;
353;SDS011;165;53.592;10.044;2022-09-09T06:18:54;15.37;;;13.70;;
353;SDS011;165;53.592;10.044;2022-09-09T06:21:24;10.93;;;10.33;;
353;SDS011;165;53.592;10.044;2022-09-09T06:23:51;13.00;;;9.60;;
353;SDS011;165;53.592;10.044;2022-09-09T06:26:19;9.93;;;9.43;;
353;SDS011;165;53.592;10.044;2022-09-09T06:28:46;10.93;;;9.17;;
353;SDS011;165;53.592;10.044;2022-09-09T06:31:14;11.20;;;10.20;;
353;SDS011;165;53.592;10.044;2022-09-09T06:33:46;11.50;;;10.90;;
353;SDS011;165;53.592;10.044;2022-09-09T06:36:12;13.67;;;11.30;;
353;SDS011;165;53.592;10.044;2022-09-09T06:38:39;10.73;;;9.77;;
353;SDS011;165;53.592;10.044;2022-09-09T06:41:05;9.90;;;8.47;;
353;SDS011;165;53.592;10.044;2022-09-09T06:43:31;9.37;;;8.90;;
353;SDS011;165;53.592;10.044;2022-09-09T06:46:11;8.80;;;8.30;;
353;SDS011;165;53.592;10.044;2022-09-09T06:48:39;11.40;;;10.80;;
353;SDS011;165;53.592;10.044;2022-09-09T06:51:09;15.97;;;10.20;;
353;SDS011;165;53.592;10.044;2022-09-09T06:53:36;9.67;;;9.17;;
353;SDS011;165;53.592;10.044;2022-09-09T06:56:16;12.77;;;11.10;;
353;SDS011;165;53.592;10.044;2022-09-09T06:58:44;11.63;;;10.27;;
353;SDS011;165;53.592;10.044;2022-09-09T07:01:13;13.88;;;10.75;;
353;SDS011;165;53.592;10.044;2022-09-09T07:03:44;12.50;;;8.93;;
353;SDS011;165;53.592;10.044;2022-09-09T07:06:23;9.23;;;8.73;;
353;SDS011;165;53.592;10.044;2022-09-09T07:08:54;8.57;;;7.97;;
353;SDS011;165;53.592;10.044;2022-09-09T07:11:21;10.10;;;7.30;;
353;SDS011;165;53.592;10.044;2022-09-09T07:13:48;7.53;;;6.57;;
353;SDS011;165;53.592;10.044;2022-09-09T07:16:15;6.23;;;5.27;;
353;SDS011;165;53.592;10.044;2022-09-09T07:18:42;10.73;;;5.73;;
353;SDS011;165;53.592;10.044;2022-09-09T07:21:09;6.80;;;6.20;;
353;SDS011;165;53.592;10.044;2022-09-09T07:23:36;5.53;;;5.23;;
353;SDS011;165;53.592;10.044;2022-09-09T07:26:06;6.70;;;5.33;;
353;SDS011;165;53.592;10.044;2022-09-09T07:28:36;7.20;;;6.80;;
353;SDS011;165;53.592;10.044;2022-09-09T07:31:03;7.03;;;6.65;;
353;SDS011;165;53.592;10.044;2022-09-09T07:33:29;7.63;;;6.90;;
353;SDS011;165;53.592;10.044;2022-09-09T07:36:03;6.70;;;6.13;;
353;SDS011;165;53.592;10.044;2022-09-09T07:38:37;7.63;;;6.80;;
353;SDS011;165;53.592;10.044;2022-09-09T07:41:08;6.70;;;6.20;;
353;SDS011;165;53.592;10.044;2022-09-09T07:43:39;5.57;;;5.17;;
353;SDS011;165;53.592;10.044;2022-09-09T07:46:05;5.93;;;5.03;;
353;SDS011;165;53.592;10.044;2022-09-09T07:48:31;5.30;;;5.00;;
353;SDS011;165;53.592;10.044;2022-09-09T07:51:08;6.83;;;4.80;;
353;SDS011;165;53.592;10.044;2022-09-09T07:53:36;8.10;;;5.10;;
353;SDS011;165;53.592;10.044;2022-09-09T07:56:07;6.50;;;4.83;;
353;SDS011;165;53.592;10.044;2022-09-09T07:58:38;4.60;;;4.30;;
353;SDS011;165;53.592;10.044;2022-09-09T08:01:08;5.80;;;4.03;;
353;SDS011;165;53.592;10.044;2022-09-09T08:03:35;5.60;;;4.63;;
353;SDS011;165;53.592;10.044;2022-09-09T08:06:01;3.97;;;3.77;;
353;SDS011;165;53.592;10.044;2022-09-09T08:08:28;8.27;;;5.30;;
353;SDS011;165;53.592;10.044;2022-09-09T08:11:00;5.20;;;4.50;;
353;SDS011;165;53.592;10.044;2022-09-09T08:13:32;5.60;;;4.50;;
353;SDS011;165;53.592;10.044;2022-09-09T08:16:05;10.03;;;5.03;;
353;SDS011;165;53.592;10.044;2022-09-09T08:18:32;6.97;;;4.67;;
353;SDS011;165;53.592;10.044;2022-09-09T08:21:04;5.43;;;4.30;;
353;SDS011;165;53.592;10.044;2022-09-09T08:23:31;5.80;;;4.07;;
353;SDS011;165;53.592;10.044;2022-09-09T08:26:02;7.90;;;7.07;;
353;SDS011;165;53.592;10.044;2022-09-09T08:28:34;5.53;;;5.30;;
353;SDS011;165;53.592;10.044;2022-09-09T08:31:16;6.43;;;4.50;;
353;SDS011;165;53.592;10.044;2022-09-09T08:33:43;5.57;;;4.50;;
353;SDS011;165;53.592;10.044;2022-09-09T08:36:16;6.40;;;3.30;;
353;SDS011;165;53.592;10.044;2022-09-09T08:38:43;4.60;;;4.00;;
353;SDS011;165;53.592;10.044;2022-09-09T08:44:23;5.07;;;4.60;;
353;SDS011;165;53.592;10.044;2022-09-09T08:47:11;5.03;;;4.37;;
353;SDS011;165;53.592;10.044;2022-09-09T08:58:12;4.63;;;4.33;;
353;SDS011;165;53.592;10.044;2022-09-09T09:06:09;6.70;;;4.90;;
353;SDS011;165;53.592;10.044;2022-09-09T09:08:43;5.07;;;4.77;;
353;SDS011;165;53.592;10.044;2022-09-09T09:11:16;8.23;;;4.27;;
353;SDS011;165;53.592;10.044;2022-09-09T09:16:31;5.77;;;4.27;;
353;SDS011;165;53.592;10.044;2022-09-09T09:19:01;7.93;;;4.10;;
353;SDS011;165;53.592;10.044;2022-09-09T09:27:07;6.33;;;5.13;;
353;SDS011;165;53.592;10.044;2022-09-09T09:29:40;6.90;;;6.57;;
353;SDS011;165;53.592;10.044;2022-09-09T09:32:10;5.50;;;3.47;;
353;SDS011;165;53.592;10.044;2022-09-09T09:34:39;5.23;;;4.13;;
353;SDS011;165;53.592;10.044;2022-09-09T09:37:25;3.43;;;3.23;;
353;SDS011;165;53.592;10.044;2022-09-09T09:39:54;3.80;;;3.60;;
353;SDS011;165;53.592;10.044;2022-09-09T09:42:19;4.73;;;2.37;;
353;SDS011;165;53.592;10.044;2022-09-09T09:44:45;3.80;;;2.03;;
353;SDS011;165;53.592;10.044;2022-09-09T09:47:20;4.60;;;2.57;;
353;SDS011;165;53.592;10.044;2022-09-09T09:49:59;3.03;;;2.30;;
353;SDS011;165;53.592;10.044;2022-09-09T09:52:27;3.30;;;2.27;;
353;SDS011;165;53.592;10.044;2022-09-09T09:54:55;2.90;;;1.90;;
353;SDS011;165;53.592;10.044;2022-09-09T09:57:25;3.40;;;2.20;;
353;SDS011;165;53.592;10.044;2022-09-09T10:02:43;3.30;;;3.00;;
353;SDS011;165;53.592;10.044;2022-09-09T10:05:14;3.30;;;2.57;;
353;SDS011;165;53.592;10.044;2022-09-09T10:07:41;5.37;;;5.07;;
353;SDS011;165;53.592;10.044;2022-09-09T10:10:12;2.93;;;1.93;;
353;SDS011;165;53.592;10.044;2022-09-09T10:13:03;3.50;;;2.90;;
353;SDS011;165;53.592;10.044;2022-09-09T10:19:00;3.30;;;2.27;;
353;SDS011;165;53.592;10.044;2022-09-09T10:26:55;3.30;;;2.40;;
353;SDS011;165;53.592;10.044;2022-09-09T10:29:50;2.70;;;2.20;;
353;SDS011;165;53.592;10.044;2022-09-09T10:43:54;2.70;;;2.17;;
353;SDS011;165;53.592;10.044;2022-09-09T10:49:20;3.80;;;2.00;;
353;SDS011;165;53.592;10.044;2022-09-09T10:55:00;2.87;;;2.40;;
353;SDS011;165;53.592;10.044;2022-09-09T10:57:29;4.23;;;1.90;;
353;SDS011;165;53.592;10.044;2022-09-09T11:00:04;3.80;;;2.10;;
353;SDS011;165;53.592;10.044;2022-09-09T11:02:33;2.00;;;1.80;;
353;SDS011;165;53.592;10.044;2022-09-09T11:10:40;3.40;;;1.60;;
353;SDS011;165;53.592;10.044;2022-09-09T11:13:25;2.97;;;2.07;;
353;SDS011;165;53.592;10.044;2022-09-09T11:19:11;2.57;;;1.90;;
353;SDS011;165;53.592;10.044;2022-09-09T11:21:47;2.70;;;1.60;;
353;SDS011;165;53.592;10.044;2022-09-09T11:24:28;3.20;;;1.80;;
353;SDS011;165;53.592;10.044;2022-09-09T11:35:47;3.90;;;2.20;;
353;SDS011;165;53.592;10.044;2022-09-09T11:38:30;4.40;;;3.80;;
353;SDS011;165;53.592;10.044;2022-09-09T11:41:17;6.43;;;3.20;;
353;SDS011;165;53.592;10.044;2022-09-09T11:43:48;4.07;;;2.10;;
353;SDS011;165;53.592;10.044;2022-09-09T11:46:20;5.80;;;3.20;;
353;SDS011;165;53.592;10.044;2022-09-09T11:49:00;2.33;;;1.90;;
353;SDS011;165;53.592;10.044;2022-09-09T11:51:32;3.63;;;2.37;;
353;SDS011;165;53.592;10.044;2022-09-09T11:56:54;4.23;;;2.20;;
353;SDS011;165;53.592;10.044;2022-09-09T11:59:20;2.37;;;1.93;;
353;SDS011;165;53.592;10.044;2022-09-09T12:04:38;2.80;;;1.87;;
353;SDS011;165;53.592;10.044;2022-09-09T12:07:32;2.17;;;1.67;;
353;SDS011;165;53.592;10.044;2022-09-09T12:10:29;2.23;;;1.80;;
353;SDS011;165;53.592;10.044;2022-09-09T12:15:54;3.30;;;2.27;;
353;SDS011;165;53.592;10.044;2022-09-09T12:18:25;3.47;;;2.00;;
353;SDS011;165;53.592;10.044;2022-09-09T12:23:59;4.03;;;2.33;;
353;SDS011;165;53.592;10.044;2022-09-09T12:26:34;5.53;;;3.83;;
353;SDS011;165;53.592;10.044;2022-09-09T12:29:13;3.67;;;2.03;;
353;SDS011;165;53.592;10.044;2022-09-09T12:34:36;4.77;;;3.00;;
353;SDS011;165;53.592;10.044;2022-09-09T12:37:21;3.50;;;2.73;;
353;SDS011;165;53.592;10.044;2022-09-09T12:40:34;5.07;;;3.37;;
353;SDS011;165;53.592;10.044;2022-09-09T12:43:01;5.80;;;3.60;;
353;SDS011;165;53.592;10.044;2022-09-09T12:45:41;3.77;;;3.60;;
353;SDS011;165;53.592;10.044;2022-09-09T12:48:10;4.20;;;3.27;;
353;SDS011;165;53.592;10.044;2022-09-09T12:50:37;4.97;;;3.17;;
353;SDS011;165;53.592;10.044;2022-09-09T12:53:11;5.03;;;4.73;;
353;SDS011;165;53.592;10.044;2022-09-09T12:55:55;4.70;;;3.63;;
353;SDS011;165;53.592;10.044;2022-09-09T12:58:22;4.40;;;3.27;;
353;SDS011;165;53.592;10.044;2022-09-09T13:00:49;4.50;;;2.70;;
353;SDS011;165;53.592;10.044;2022-09-09T13:03:17;4.17;;;3.90;;
353;SDS011;165;53.592;10.044;2022-09-09T13:05:48;2.60;;;2.30;;
353;SDS011;165;53.592;10.044;2022-09-09T13:08:15;6.10;;;4.53;;
353;SDS011;165;53.592;10.044;2022-09-09T13:10:56;5.97;;;3.90;;
353;SDS011;165;53.592;10.044;2022-09-09T13:13:40;4.97;;;3.80;;
353;SDS011;165;53.592;10.044;2022-09-09T13:19:09;10.63;;;6.37;;
353;SDS011;165;53.592;10.044;2022-09-09T13:21:44;3.60;;;3.40;;
353;SDS011;165;53.592;10.044;2022-09-09T13:26:58;6.27;;;3.70;;
353;SDS011;165;53.592;10.044;2022-09-09T13:29:29;5.90;;;4.53;;
353;SDS011;165;53.592;10.044;2022-09-09T13:32:05;9.20;;;6.20;;
353;SDS011;165;53.592;10.044;2022-09-09T13:34:40;8.90;;;4.77;;
353;SDS011;165;53.592;10.044;2022-09-09T13:37:37;4.60;;;4.30;;
353;SDS011;165;53.592;10.044;2022-09-09T13:40:06;7.80;;;6.30;;
353;SDS011;165;53.592;10.044;2022-09-09T13:42:41;73.30;;;55.60;;
353;SDS011;165;53.592;10.044;2022-09-09T13:45:15;6.63;;;6.20;;
353;SDS011;165;53.592;10.044;2022-09-09T13:47:45;8.53;;;5.90;;
353;SDS011;165;53.592;10.044;2022-09-09T13:50:25;12.23;;;10.53;;
353;SDS011;165;53.592;10.044;2022-09-09T13:52:53;8.60;;;7.60;;
353;SDS011;165;53.592;10.044;2022-09-09T13:55:20;12.67;;;10.60;;
353;SDS011;165;53.592;10.044;2022-09-09T13:57:51;8.67;;;6.47;;
353;SDS011;165;53.592;10.044;2022-09-09T14:00:17;6.70;;;6.10;;
353;SDS011;165;53.592;10.044;2022-09-09T14:02:43;6.40;;;4.90;;
353;SDS011;165;53.592;10.044;2022-09-09T14:05:09;8.10;;;5.73;;
353;SDS011;165;53.592;10.044;2022-09-09T14:07:36;9.30;;;6.50;;
353;SDS011;165;53.592;10.044;2022-09-09T14:10:04;6.93;;;5.63;;
353;SDS011;165;53.592;10.044;2022-09-09T14:12:30;10.33;;;6.83;;
353;SDS011;165;53.592;10.044;2022-09-09T14:14:55;8.57;;;7.30;;
353;SDS011;165;53.592;10.044;2022-09-09T14:17:21;6.53;;;6.13;;
353;SDS011;165;53.592;10.044;2022-09-09T14:19:47;6.97;;;6.57;;
353;SDS011;165;53.592;10.044;2022-09-09T14:22:12;9.37;;;6.73;;
353;SDS011;165;53.592;10.044;2022-09-09T14:24:38;6.47;;;5.33;;
353;SDS011;165;53.592;10.044;2022-09-09T14:27:04;6.80;;;6.40;;
353;SDS011;165;53.592;10.044;2022-09-09T14:29:29;6.67;;;6.27;;
353;SDS011;165;53.592;10.044;2022-09-09T14:31:55;8.33;;;7.10;;
353;SDS011;165;53.592;10.044;2022-09-09T14:34:20;9.00;;;8.10;;
353;SDS011;165;53.592;10.044;2022-09-09T14:36:46;10.50;;;8.63;;
353;SDS011;165;53.592;10.044;2022-09-09T14:39:12;8.97;;;7.90;;
353;SDS011;165;53.592;10.044;2022-09-09T14:41:37;6.00;;;5.40;;
353;SDS011;165;53.592;10.044;2022-09-09T14:44:03;4.53;;;3.50;;
353;SDS011;165;53.592;10.044;2022-09-09T14:46:35;3.53;;;3.30;;
353;SDS011;165;53.592;10.044;2022-09-09T14:49:00;4.57;;;3.70;;
353;SDS011;165;53.592;10.044;2022-09-09T14:51:26;4.33;;;3.20;;
353;SDS011;165;53.592;10.044;2022-09-09T14:53:53;5.80;;;2.60;;
353;SDS011;165;53.592;10.044;2022-09-09T14:56:21;3.97;;;2.70;;
353;SDS011;165;53.592;10.044;2022-09-09T14:58:49;3.90;;;3.37;;
353;SDS011;165;53.592;10.044;2022-09-09T15:01:16;3.60;;;2.83;;
353;SDS011;165;53.592;10.044;2022-09-09T15:03:47;5.23;;;3.20;;
353;SDS011;165;53.592;10.044;2022-09-09T15:06:24;7.33;;;5.70;;
353;SDS011;165;53.592;10.044;2022-09-09T15:08:51;7.27;;;4.40;;
353;SDS011;165;53.592;10.044;2022-09-09T15:11:18;6.83;;;5.17;;
353;SDS011;165;53.592;10.044;2022-09-09T15:13:45;7.03;;;5.83;;
353;SDS011;165;53.592;10.044;2022-09-09T15:16:11;6.67;;;5.80;;
353;SDS011;165;53.592;10.044;2022-09-09T15:18:41;5.20;;;4.80;;
353;SDS011;165;53.592;10.044;2022-09-09T15:21:13;6.53;;;4.80;;
353;SDS011;165;53.592;10.044;2022-09-09T15:23:47;4.83;;;3.43;;
353;SDS011;165;53.592;10.044;2022-09-09T15:26:13;3.43;;;3.23;;
353;SDS011;165;53.592;10.044;2022-09-09T15:28:40;4.80;;;4.10;;
353;SDS011;165;53.592;10.044;2022-09-09T15:31:15;5.70;;;5.20;;
353;SDS011;165;53.592;10.044;2022-09-09T15:33:51;8.67;;;8.00;;
353;SDS011;165;53.592;10.044;2022-09-09T15:36:26;5.80;;;4.77;;
353;SDS011;165;53.592;10.044;2022-09-09T15:38:54;2.87;;;2.40;;
353;SDS011;165;53.592;10.044;2022-09-09T15:41:20;4.13;;;3.00;;
353;SDS011;165;53.592;10.044;2022-09-09T15:43:48;3.90;;;2.73;;
353;SDS011;165;53.592;10.044;2022-09-09T15:48:52;3.90;;;2.80;;
353;SDS011;165;53.592;10.044;2022-09-09T15:51:19;4.10;;;2.60;;
353;SDS011;165;53.592;10.044;2022-09-09T15:53:45;4.60;;;3.23;;
353;SDS011;165;53.592;10.044;2022-09-09T15:56:11;4.63;;;3.63;;
353;SDS011;165;53.592;10.044;2022-09-09T15:58:37;6.13;;;4.63;;
353;SDS011;165;53.592;10.044;2022-09-09T16:01:03;6.33;;;5.00;;
353;SDS011;165;53.592;10.044;2022-09-09T16:03:36;5.17;;;4.30;;
353;SDS011;165;53.592;10.044;2022-09-09T16:06:03;9.50;;;5.63;;
353;SDS011;165;53.592;10.044;2022-09-09T16:08:36;4.00;;;3.80;;
353;SDS011;165;53.592;10.044;2022-09-09T16:11:07;5.00;;;3.63;;
353;SDS011;165;53.592;10.044;2022-09-09T16:13:37;3.20;;;2.80;;
353;SDS011;165;53.592;10.044;2022-09-09T16:16:05;6.70;;;4.60;;
353;SDS011;165;53.592;10.044;2022-09-09T16:18:41;4.30;;;3.33;;
353;SDS011;165;53.592;10.044;2022-09-09T16:21:12;4.27;;;3.20;;
353;SDS011;165;53.592;10.044;2022-09-09T16:23:40;5.43;;;3.47;;
353;SDS011;165;53.592;10.044;2022-09-09T16:26:06;4.17;;;3.93;;
353;SDS011;165;53.592;10.044;2022-09-09T16:28:33;4.57;;;3.60;;
353;SDS011;165;53.592;10.044;2022-09-09T16:30:58;4.67;;;3.07;;
353;SDS011;165;53.592;10.044;2022-09-09T16:33:28;7.40;;;3.87;;
353;SDS011;165;53.592;10.044;2022-09-09T16:35:55;4.80;;;3.20;;
353;SDS011;165;53.592;10.044;2022-09-09T16:38:20;4.83;;;3.33;;
353;SDS011;165;53.592;10.044;2022-09-09T16:40:46;4.03;;;2.33;;
353;SDS011;165;53.592;10.044;2022-09-09T16:43:12;6.33;;;3.53;;
353;SDS011;165;53.592;10.044;2022-09-09T16:45:42;4.40;;;4.10;;
353;SDS011;165;53.592;10.044;2022-09-09T16:48:08;9.83;;;3.60;;
353;SDS011;165;53.592;10.044;2022-09-09T16:50:34;5.60;;;4.23;;
353;SDS011;165;53.592;10.044;2022-09-09T16:52:59;3.47;;;2.80;;
353;SDS011;165;53.592;10.044;2022-09-09T16:55:28;7.00;;;4.83;;
353;SDS011;165;53.592;10.044;2022-09-09T16:57:54;3.20;;;2.67;;
353;SDS011;165;53.592;10.044;2022-09-09T17:00:20;4.03;;;3.07;;
353;SDS011;165;53.592;10.044;2022-09-09T17:02:45;6.10;;;4.07;;
353;SDS011;165;53.592;10.044;2022-09-09T17:05:11;7.10;;;4.10;;
353;SDS011;165;53.592;10.044;2022-09-09T17:07:39;7.20;;;3.90;;
353;SDS011;165;53.592;10.044;2022-09-09T17:10:05;6.10;;;4.67;;
353;SDS011;165;53.592;10.044;2022-09-09T17:12:33;5.13;;;3.45;;
353;SDS011;165;53.592;10.044;2022-09-09T17:15:00;3.90;;;3.00;;
353;SDS011;165;53.592;10.044;2022-09-09T17:17:27;4.17;;;3.23;;
353;SDS011;165;53.592;10.044;2022-09-09T17:19:53;7.50;;;4.20;;
353;SDS011;165;53.592;10.044;2022-09-09T17:22:19;6.17;;;4.63;;
353;SDS011;165;53.592;10.044;2022-09-09T17:24:45;4.60;;;3.00;;
353;SDS011;165;53.592;10.044;2022-09-09T17:27:11;4.73;;;3.70;;
353;SDS011;165;53.592;10.044;2022-09-09T17:29:37;6.67;;;5.27;;
353;SDS011;165;53.592;10.044;2022-09-09T17:32:03;6.15;;;4.20;;
353;SDS011;165;53.592;10.044;2022-09-09T17:34:30;5.95;;;4.20;;
353;SDS011;165;53.592;10.044;2022-09-09T17:36:55;5.65;;;4.70;;
353;SDS011;165;53.592;10.044;2022-09-09T17:39:21;5.15;;;4.90;;
353;SDS011;165;53.592;10.044;2022-09-09T17:41:47;6.75;;;5.20;;
353;SDS011;165;53.592;10.044;2022-09-09T17:44:13;6.22;;;5.88;;
353;SDS011;165;53.592;10.044;2022-09-09T17:46:40;6.20;;;4.97;;
353;SDS011;165;53.592;10.044;2022-09-09T17:49:11;5.70;;;5.40;;
353;SDS011;165;53.592;10.044;2022-09-09T17:51:38;7.07;;;6.20;;
353;SDS011;165;53.592;10.044;2022-09-09T17:54:07;7.20;;;5.70;;
353;SDS011;165;53.592;10.044;2022-09-09T17:56:38;7.73;;;5.30;;
353;SDS011;165;53.592;10.044;2022-09-09T17:59:07;9.57;;;6.13;;
353;SDS011;165;53.592;10.044;2022-09-09T18:01:37;14.60;;;12.60;;